DAL040 YSSY-KLAX
Flight info
| Callsign | DAL040 |
|---|---|
| Flight time | N/A |
| Altitude | 33000 |
| Route | DIPSO G595 SOTKI DCT UBLIN A579 TANIL DCT NN B581 BONLO/N0502F350 B581 WOOBY DCT QUIGG/N0497F370 B577 BELAN/N0486F390 B577 FICKY GOATZ2 |
| Aircraft | A359/H-SDE2E3GHIJ3J4J5LM1ORWXY/LB1D1 |
Departure
| Time | 2026-05-07 21:09 |
|---|---|
| Airport | Sydney Kingsford Smith International Airport (YSSY) |
Arrival
| Time | N/A |
|---|---|
| Airport | Los Angeles International Airport (KLAX) |
| Time | Latitude | Longitude | Altitude | Speed | Heading |
|---|---|---|---|---|---|
| 2026-05-07 20:35 | -33.93565 | 151.16815 | 27 ft | 0 kts | 237° |
| 2026-05-07 20:37 | -33.93562 | 151.16821 | 27 ft | 0 kts | 237° |
| 2026-05-07 20:37 | -33.93567 | 151.16813 | 27 ft | 0 kts | 237° |
| 2026-05-07 20:37 | -33.93557 | 151.16812 | 27 ft | 0 kts | 221° |
| 2026-05-07 20:37 | -33.93562 | 151.16817 | 27 ft | 0 kts | 239° |
| 2026-05-07 20:53 | -33.93556 | 151.16831 | 26 ft | 4 kts | 239° |
| 2026-05-07 20:53 | -33.93542 | 151.16859 | 25 ft | 4 kts | 239° |
| 2026-05-07 20:54 | -33.93529 | 151.16883 | 25 ft | 2 kts | 237° |
| 2026-05-07 20:54 | -33.93513 | 151.16905 | 25 ft | 4 kts | 208° |
| 2026-05-07 20:54 | -33.93489 | 151.16913 | 26 ft | 4 kts | 176° |
| 2026-05-07 20:54 | -33.93464 | 151.16909 | 26 ft | 3 kts | 170° |
| 2026-05-07 20:55 | -33.93438 | 151.16904 | 26 ft | 4 kts | 170° |
| 2026-05-07 20:55 | -33.93428 | 151.16901 | 26 ft | 0 kts | 170° |
| 2026-05-07 20:58 | -33.93438 | 151.16903 | 26 ft | 5 kts | 171° |
| 2026-05-07 20:58 | -33.93496 | 151.16936 | 27 ft | 14 kts | 135° |
| 2026-05-07 20:58 | -33.93497 | 151.17051 | 27 ft | 14 kts | 80° |
| 2026-05-07 20:58 | -33.93552 | 151.17115 | 26 ft | 12 kts | 161° |
| 2026-05-07 20:59 | -33.93632 | 151.17137 | 26 ft | 12 kts | 168° |
| 2026-05-07 20:59 | -33.93749 | 151.17167 | 27 ft | 24 kts | 168° |
| 2026-05-07 20:59 | -33.93942 | 151.17217 | 26 ft | 24 kts | 168° |
| 2026-05-07 20:59 | -33.94058 | 151.17247 | 27 ft | 16 kts | 167° |
| 2026-05-07 21:00 | -33.94175 | 151.17278 | 28 ft | 19 kts | 167° |
| 2026-05-07 21:00 | -33.94317 | 151.17316 | 31 ft | 24 kts | 167° |
| 2026-05-07 21:00 | -33.94492 | 151.17360 | 32 ft | 26 kts | 168° |
| 2026-05-07 21:00 | -33.94668 | 151.17402 | 32 ft | 26 kts | 168° |
| 2026-05-07 21:01 | -33.94848 | 151.17450 | 27 ft | 28 kts | 168° |
| 2026-05-07 21:01 | -33.95037 | 151.17499 | 26 ft | 27 kts | 168° |
| 2026-05-07 21:01 | -33.95221 | 151.17547 | 25 ft | 24 kts | 166° |
| 2026-05-07 21:01 | -33.95259 | 151.17584 | 28 ft | 0 kts | 112° |
| 2026-05-07 21:02 | -33.95260 | 151.17589 | 29 ft | 0 kts | 109° |
| 2026-05-07 21:03 | -33.95260 | 151.17590 | 29 ft | 1 kts | 109° |
| 2026-05-07 21:03 | -33.95261 | 151.17594 | 29 ft | 0 kts | 103° |
| 2026-05-07 21:04 | -33.95261 | 151.17619 | 31 ft | 7 kts | 89° |
| 2026-05-07 21:04 | -33.95251 | 151.17706 | 28 ft | 14 kts | 78° |
| 2026-05-07 21:04 | -33.95222 | 151.17854 | 30 ft | 22 kts | 78° |
| 2026-05-07 21:05 | -33.95184 | 151.18064 | 32 ft | 29 kts | 78° |
| 2026-05-07 21:05 | -33.95139 | 151.18321 | 32 ft | 32 kts | 78° |
| 2026-05-07 21:05 | -33.95144 | 151.18571 | 32 ft | 30 kts | 121° |
| 2026-05-07 21:05 | -33.95306 | 151.18713 | 32 ft | 29 kts | 159° |
| 2026-05-07 21:06 | -33.95526 | 151.18776 | 29 ft | 37 kts | 168° |
| 2026-05-07 21:06 | -33.95771 | 151.18843 | 32 ft | 36 kts | 167° |
| 2026-05-07 21:06 | -33.96008 | 151.18905 | 33 ft | 35 kts | 168° |
| 2026-05-07 21:06 | -33.96245 | 151.18968 | 33 ft | 34 kts | 166° |
| 2026-05-07 21:07 | -33.96480 | 151.19025 | 30 ft | 35 kts | 169° |
| 2026-05-07 21:07 | -33.96721 | 151.19077 | 28 ft | 35 kts | 179° |
| 2026-05-07 21:07 | -33.96951 | 151.19104 | 29 ft | 32 kts | 168° |
| 2026-05-07 21:07 | -33.97126 | 151.19207 | 27 ft | 25 kts | 94° |
| 2026-05-07 21:08 | -33.97107 | 151.19339 | 28 ft | 14 kts | 71° |
| 2026-05-07 21:08 | -33.97041 | 151.19372 | 27 ft | 12 kts | 340° |
| 2026-05-07 21:08 | -33.96996 | 151.19357 | 30 ft | 0 kts | 349° |
| 2026-05-07 21:08 | -33.96993 | 151.19356 | 30 ft | 6 kts | 349° |
| 2026-05-07 21:09 | -33.96722 | 151.19286 | 26 ft | 72 kts | 347° |
| 2026-05-07 21:09 | -33.96000 | 151.19100 | 35 ft | 139 kts | 348° |
| 2026-05-07 21:09 | -33.94923 | 151.18840 | 443 ft | 162 kts | 348° |
| 2026-05-07 21:09 | -33.93837 | 151.18881 | 1421 ft | 157 kts | 14° |
| 2026-05-07 21:10 | -33.92998 | 151.19807 | 1857 ft | 186 kts | 63° |
| 2026-05-07 21:10 | -33.92816 | 151.21429 | 2072 ft | 206 kts | 108° |
| 2026-05-07 21:10 | -33.93133 | 151.23146 | 2342 ft | 217 kts | 104° |
| 2026-05-07 21:10 | -33.93274 | 151.25013 | 2685 ft | 230 kts | 92° |
| 2026-05-07 21:11 | -33.93243 | 151.26983 | 3056 ft | 240 kts | 91° |
| 2026-05-07 21:11 | -33.93310 | 151.29044 | 3299 ft | 254 kts | 99° |
| 2026-05-07 21:11 | -33.93509 | 151.33487 | 4146 ft | 273 kts | 95° |
| 2026-05-07 21:12 | -33.93505 | 151.35805 | 4625 ft | 280 kts | 95° |
| 2026-05-07 21:12 | -33.93465 | 151.38148 | 5321 ft | 277 kts | 94° |
| 2026-05-07 21:12 | -33.93406 | 151.40476 | 5924 ft | 280 kts | 94° |
| 2026-05-07 21:12 | -33.93338 | 151.42849 | 6450 ft | 286 kts | 94° |
| 2026-05-07 21:13 | -33.93264 | 151.45261 | 6977 ft | 290 kts | 93° |
| 2026-05-07 21:13 | -33.93186 | 151.47662 | 7538 ft | 294 kts | 93° |
| 2026-05-07 21:13 | -33.93104 | 151.50141 | 8078 ft | 300 kts | 93° |
| 2026-05-07 21:13 | -33.93010 | 151.52674 | 8636 ft | 304 kts | 92° |
| 2026-05-07 21:14 | -33.92904 | 151.55230 | 9223 ft | 308 kts | 92° |
| 2026-05-07 21:14 | -33.92794 | 151.57827 | 9790 ft | 313 kts | 92° |
| 2026-05-07 21:14 | -33.92680 | 151.60471 | 10290 ft | 320 kts | 92° |
| 2026-05-07 21:14 | -33.92567 | 151.63211 | 10558 ft | 335 kts | 92° |
| 2026-05-07 21:15 | -33.92452 | 151.66081 | 10789 ft | 351 kts | 92° |
| 2026-05-07 21:15 | -33.92329 | 151.69091 | 11032 ft | 367 kts | 91° |
| 2026-05-07 21:15 | -33.92200 | 151.72216 | 11277 ft | 381 kts | 91° |
| 2026-05-07 21:15 | -33.92062 | 151.75463 | 11514 ft | 395 kts | 91° |
| 2026-05-07 21:16 | -33.91918 | 151.78819 | 11750 ft | 408 kts | 91° |
| 2026-05-07 21:16 | -33.91768 | 151.82284 | 12011 ft | 419 kts | 91° |
| 2026-05-07 21:16 | -33.91612 | 151.85811 | 12433 ft | 425 kts | 91° |
| 2026-05-07 21:16 | -33.91453 | 151.89381 | 12886 ft | 429 kts | 91° |
| 2026-05-07 21:17 | -33.91292 | 151.92991 | 13339 ft | 434 kts | 91° |
| 2026-05-07 21:17 | -33.91131 | 151.96598 | 13794 ft | 439 kts | 91° |
| 2026-05-07 21:17 | -33.90965 | 152.00305 | 14203 ft | 443 kts | 91° |
| 2026-05-07 21:17 | -33.90799 | 152.04023 | 14631 ft | 447 kts | 91° |
| 2026-05-07 21:18 | -33.90630 | 152.07774 | 15085 ft | 450 kts | 91° |
| 2026-05-07 21:18 | -33.90537 | 152.11555 | 15534 ft | 452 kts | 94° |
| 2026-05-07 21:18 | -33.90559 | 152.15347 | 15982 ft | 454 kts | 95° |
| 2026-05-07 21:18 | -33.90654 | 152.19102 | 16247 ft | 446 kts | 95° |
| 2026-05-07 21:19 | -33.90739 | 152.22799 | 16598 ft | 436 kts | 93° |
| 2026-05-07 21:19 | -33.90768 | 152.26399 | 16893 ft | 427 kts | 92° |
| 2026-05-07 21:19 | -33.90761 | 152.29877 | 17048 ft | 413 kts | 92° |
| 2026-05-07 21:19 | -33.90709 | 152.33264 | 17083 ft | 397 kts | 92° |
| 2026-05-07 21:20 | -33.90501 | 152.36521 | 17078 ft | 385 kts | 78° |
| 2026-05-07 21:20 | -33.89514 | 152.39433 | 17064 ft | 369 kts | 53° |
| 2026-05-07 21:20 | -33.87818 | 152.41587 | 17057 ft | 344 kts | 28° |
| 2026-05-07 21:20 | -33.85724 | 152.42750 | 17087 ft | 323 kts | 1° |
| 2026-05-07 21:21 | -33.83570 | 152.42822 | 17079 ft | 299 kts | 333° |
| 2026-05-07 21:21 | -33.81781 | 152.41857 | 17076 ft | 271 kts | 306° |
| 2026-05-07 21:21 | -33.80705 | 152.40171 | 17074 ft | 245 kts | 279° |
| 2026-05-07 21:21 | -33.80285 | 152.38227 | 17021 ft | 240 kts | 269° |
| 2026-05-07 21:22 | -33.80053 | 152.36198 | 16676 ft | 252 kts | 268° |
| 2026-05-07 21:22 | -33.79917 | 152.34776 | 16443 ft | 262 kts | 268° |
| 2026-05-07 21:22 | -33.79731 | 152.32593 | 16065 ft | 263 kts | 268° |
| 2026-05-07 21:22 | -33.79578 | 152.30408 | 15692 ft | 262 kts | 268° |
| 2026-05-07 21:23 | -33.79431 | 152.28227 | 15333 ft | 262 kts | 268° |
| 2026-05-07 21:23 | -33.79478 | 152.25367 | 14856 ft | 256 kts | 256° |
| 2026-05-07 21:23 | -33.79704 | 152.23951 | 14605 ft | 255 kts | 253° |
| 2026-05-07 21:23 | -33.80089 | 152.21871 | 14254 ft | 255 kts | 253° |
| 2026-05-07 21:24 | -33.80558 | 152.19818 | 13901 ft | 254 kts | 248° |
| 2026-05-07 21:24 | -33.81136 | 152.17816 | 13499 ft | 253 kts | 244° |
| 2026-05-07 21:24 | -33.81839 | 152.15875 | 13115 ft | 253 kts | 243° |
| 2026-05-07 21:24 | -33.82554 | 152.13968 | 12733 ft | 254 kts | 243° |
| 2026-05-07 21:25 | -33.83289 | 152.12038 | 12348 ft | 254 kts | 243° |
| 2026-05-07 21:25 | -33.84031 | 152.10104 | 11974 ft | 255 kts | 243° |
| 2026-05-07 21:25 | -33.84777 | 152.08171 | 11599 ft | 255 kts | 243° |
| 2026-05-07 21:25 | -33.85525 | 152.06237 | 11241 ft | 256 kts | 242° |
| 2026-05-07 21:26 | -33.86277 | 152.04294 | 10864 ft | 256 kts | 242° |
| 2026-05-07 21:26 | -33.87031 | 152.02350 | 10535 ft | 256 kts | 242° |
| 2026-05-07 21:26 | -33.87774 | 152.00435 | 10293 ft | 250 kts | 242° |
| 2026-05-07 21:26 | -33.88509 | 151.98542 | 10013 ft | 250 kts | 243° |
| 2026-05-07 21:27 | -33.89234 | 151.96626 | 9946 ft | 253 kts | 240° |
| 2026-05-07 21:27 | -33.89987 | 151.94708 | 9947 ft | 254 kts | 240° |
| 2026-05-07 21:27 | -33.90747 | 151.92792 | 9947 ft | 254 kts | 240° |
| 2026-05-07 21:27 | -33.91499 | 151.90871 | 9954 ft | 254 kts | 240° |
| 2026-05-07 21:28 | -33.92251 | 151.88935 | 9968 ft | 257 kts | 240° |
| 2026-05-07 21:28 | -33.93012 | 151.86969 | 9952 ft | 261 kts | 240° |
| 2026-05-07 21:28 | -33.93792 | 151.84970 | 9946 ft | 266 kts | 240° |
| 2026-05-07 21:28 | -33.94575 | 151.82964 | 9959 ft | 270 kts | 240° |
| 2026-05-07 21:29 | -33.95379 | 151.80894 | 9960 ft | 275 kts | 240° |
| 2026-05-07 21:29 | -33.96193 | 151.78793 | 9963 ft | 279 kts | 240° |
| 2026-05-07 21:29 | -33.97019 | 151.76655 | 9967 ft | 283 kts | 240° |
| 2026-05-07 21:29 | -33.97854 | 151.74490 | 9922 ft | 286 kts | 240° |
| 2026-05-07 21:30 | -33.98678 | 151.72366 | 9745 ft | 270 kts | 243° |
| 2026-05-07 21:30 | -33.99434 | 151.70351 | 9528 ft | 260 kts | 243° |
| 2026-05-07 21:30 | -34.00168 | 151.68394 | 9281 ft | 253 kts | 243° |
| 2026-05-07 21:30 | -34.00884 | 151.66470 | 9037 ft | 251 kts | 243° |
| 2026-05-07 21:31 | -34.01599 | 151.64547 | 8793 ft | 251 kts | 243° |
| 2026-05-07 21:31 | -34.02316 | 151.62661 | 8528 ft | 250 kts | 242° |
| 2026-05-07 21:31 | -34.03041 | 151.60758 | 8274 ft | 250 kts | 242° |
| 2026-05-07 21:31 | -34.03771 | 151.58848 | 8038 ft | 251 kts | 242° |
| 2026-05-07 21:32 | -34.04507 | 151.56946 | 7796 ft | 249 kts | 242° |
| 2026-05-07 21:32 | -34.05239 | 151.55051 | 7542 ft | 249 kts | 242° |
| 2026-05-07 21:32 | -34.05962 | 151.53161 | 7288 ft | 248 kts | 242° |
| 2026-05-07 21:32 | -34.06684 | 151.51269 | 7048 ft | 248 kts | 242° |
| 2026-05-07 21:33 | -34.07406 | 151.49381 | 6788 ft | 247 kts | 241° |
| 2026-05-07 21:33 | -34.08126 | 151.47501 | 6537 ft | 246 kts | 241° |
| 2026-05-07 21:33 | -34.08840 | 151.45626 | 6290 ft | 246 kts | 242° |
| 2026-05-07 21:33 | -34.09553 | 151.43752 | 6033 ft | 245 kts | 241° |
| 2026-05-07 21:34 | -34.10264 | 151.41885 | 5775 ft | 244 kts | 241° |
| 2026-05-07 21:34 | -34.10967 | 151.40031 | 5544 ft | 243 kts | 241° |
| 2026-05-07 21:34 | -34.11670 | 151.38178 | 5307 ft | 242 kts | 240° |
| 2026-05-07 21:34 | -34.12374 | 151.36336 | 5054 ft | 240 kts | 240° |
| 2026-05-07 21:35 | -34.13072 | 151.34510 | 4811 ft | 239 kts | 240° |
| 2026-05-07 21:35 | -34.13764 | 151.32678 | 4556 ft | 241 kts | 242° |
| 2026-05-07 21:35 | -34.14466 | 151.30815 | 4327 ft | 246 kts | 240° |
| 2026-05-07 21:35 | -34.15187 | 151.28961 | 4082 ft | 246 kts | 240° |
| 2026-05-07 21:36 | -34.15825 | 151.27060 | 3889 ft | 244 kts | 252° |
| 2026-05-07 21:36 | -34.15739 | 151.25020 | 3625 ft | 252 kts | 290° |
| 2026-05-07 21:36 | -34.14615 | 151.23419 | 3499 ft | 253 kts | 318° |
| 2026-05-07 21:36 | -34.13069 | 151.22439 | 3345 ft | 251 kts | 339° |
| 2026-05-07 21:37 | -34.11370 | 151.22015 | 3115 ft | 248 kts | 347° |
| 2026-05-07 21:37 | -34.09680 | 151.21633 | 2772 ft | 246 kts | 340° |
| 2026-05-07 21:37 | -34.08009 | 151.21149 | 2415 ft | 246 kts | 340° |
| 2026-05-07 21:37 | -34.06336 | 151.20704 | 2066 ft | 246 kts | 341° |
| 2026-05-07 21:38 | -34.04672 | 151.20271 | 1740 ft | 244 kts | 340° |
| 2026-05-07 21:38 | -34.03056 | 151.19841 | 1400 ft | 229 kts | 340° |
| 2026-05-07 21:38 | -34.01569 | 151.19449 | 1093 ft | 209 kts | 341° |
| 2026-05-07 21:38 | -34.00224 | 151.19090 | 831 ft | 187 kts | 343° |
| 2026-05-07 21:39 | -33.99031 | 151.18776 | 594 ft | 170 kts | 342° |
| 2026-05-07 21:39 | -33.97922 | 151.18482 | 361 ft | 156 kts | 346° |
| 2026-05-07 21:39 | -33.96901 | 151.18210 | 155 ft | 142 kts | 347° |
| 2026-05-07 21:39 | -33.95973 | 151.17946 | 28 ft | 133 kts | 347° |
| 2026-05-07 21:40 | -33.95238 | 151.17755 | 29 ft | 70 kts | 348° |
| 2026-05-07 21:40 | -33.94956 | 151.17684 | 27 ft | 31 kts | 348° |
| 2026-05-07 21:40 | -33.94776 | 151.17638 | 29 ft | 23 kts | 348° |
| 2026-05-07 21:40 | -33.94639 | 151.17603 | 30 ft | 17 kts | 347° |
| 2026-05-07 21:41 | -33.94553 | 151.17554 | 31 ft | 11 kts | 332° |
| 2026-05-07 21:41 | -33.94494 | 151.17516 | 30 ft | 8 kts | 330° |
| 2026-05-07 21:41 | -33.94452 | 151.17484 | 29 ft | 8 kts | 327° |
| 2026-05-07 21:41 | -33.94406 | 151.17443 | 31 ft | 9 kts | 320° |
| 2026-05-07 21:42 | -33.94359 | 151.17392 | 31 ft | 10 kts | 317° |
| 2026-05-07 21:42 | -33.94301 | 151.17328 | 30 ft | 13 kts | 317° |
| 2026-05-07 21:42 | -33.94204 | 151.17282 | 28 ft | 17 kts | 348° |
| 2026-05-07 21:42 | -33.94083 | 151.17253 | 28 ft | 20 kts | 348° |
| 2026-05-07 21:43 | -33.93950 | 151.17215 | 29 ft | 19 kts | 347° |
| 2026-05-07 21:43 | -33.93824 | 151.17186 | 24 ft | 17 kts | 348° |
| 2026-05-07 21:43 | -33.93724 | 151.17159 | 25 ft | 12 kts | 346° |
| 2026-05-07 21:43 | -33.93666 | 151.17144 | 26 ft | 10 kts | 348° |
| 2026-05-07 21:44 | -33.93583 | 151.17124 | 26 ft | 14 kts | 348° |
| 2026-05-07 21:44 | -33.93512 | 151.17082 | 27 ft | 9 kts | 307° |
| 2026-05-07 21:44 | -33.93505 | 151.17029 | 27 ft | 5 kts | 266° |
| 2026-05-07 21:44 | -33.93509 | 151.17005 | 27 ft | 1 kts | 255° |
| 2026-05-07 21:45 | -33.93517 | 151.16993 | 27 ft | 3 kts | 224° |
| 2026-05-07 21:45 | -33.93536 | 151.16990 | 27 ft | 2 kts | 176° |
| 2026-05-07 21:45 | -33.93557 | 151.16996 | 27 ft | 6 kts | 167° |
| 2026-05-07 21:46 | -33.93594 | 151.17006 | 27 ft | 2 kts | 167° |
| 2026-05-07 21:46 | -33.93598 | 151.17007 | 27 ft | 0 kts | 167° |
| 2026-05-07 21:46 | -33.93611 | 151.17010 | 27 ft | 1 kts | 167° |